• Join FlightAware (Why Join?)
  • Login
  • US Flag 
01:22AM EDT


 

Airport Tracker/Info


-or-


 

Live Flight TrackerFlight Track Log ✈ FLG3800 ✈ 21-Apr-2013 ✈ KAZO - KDTW

Flight Track Log - Related Links

Times and Time Zones

All times are in EDT time to prevent confusion due to time zone crossing. See the FLG3800 flight status page for this flight to view local times or setup timezone preferences in your user account.

Time Position Orientation Groundspeed Altitude Reporting Facility
EDT Latitude Longitude Course Direction KTS MPH feet Rate Location/Type
08:14AM 42.2725 -85.5511 106° East 173 199 2,500  Level Chicago Center
08:15AM 42.3192 -85.5258 22° Northeast 207 238 5,000 2,340 Climbing Chicago Center
08:16AM 42.2933 -85.4261 109° East 254 292 7,300 2,520 Climbing Chicago Center
08:17AM 42.1651 -85.2427 106° East  Level FlightAware Approximate
08:17AM 42.2603 -85.3314 115° Southeast 272 313 10,200  Level Chicago Center
08:17AM 42.2414 -85.2733 114° Southeast 278 320 10,900 480 Climbing Cleveland Center
08:18AM 42.1485 -85.1648 106° East  Level FlightAware Approximate
08:18AM 42.1983 -85.1553 116° Southeast 319 367 11,000  Level Cleveland Center
08:19AM 42.1318 -85.0870 106° East  Level FlightAware Approximate
08:19AM 42.1572 -85.0317 114° Southeast 345 397 11,000  Level Cleveland Center
08:20AM 42.1158 -84.9142 115° Southeast 351 404 11,000  Level Cleveland Center
08:21AM 42.0725 -84.7936 116° Southeast 351 404 11,000  Level Cleveland Center
08:22AM 42.0181 -84.6781 122° Southeast 356 410 11,100 300 Climbing Cleveland Center
08:23AM 41.9828 -84.5586 112° Southeast 356 410 11,600 420 Climbing Cleveland Center
08:24AM 41.9453 -84.4333 112° Southeast 356 410 12,000 180 Climbing Cleveland Center
08:25AM 41.9058 -84.3053 112° Southeast 356 410 12,000  Level Cleveland Center
08:26AM 41.8850 -84.2400 113° Southeast 365 420 12,000  Level Cleveland Center
08:26AM 41.8622 -84.1689 113° Southeast 361 415 12,000  Level Cleveland Center
08:27AM 41.8453 -84.1122 112° Southeast 366 421 12,000  Level Cleveland Center
08:27AM 41.8369 -84.0392 99° East 361 415 12,000  Level Cleveland Center
08:28AM 41.8528 -83.9983 62° Northeast 353 406 12,000  Level Cleveland Center
08:28AM 41.8881 -83.9303 55° Northeast 311 358 12,000  Level Cleveland Center
08:29AM 41.9144 -83.8844 52° Northeast 350 403 12,000  Level Cleveland Center
08:29AM 41.9514 -83.8333 46° Northeast 323 372 12,000  Level Cleveland Center
08:30AM 41.9903 -83.7878 41° Northeast 347 399 12,000 -300 Level Cleveland Center
08:30AM 42.0247 -83.7475 41° Northeast 328 377 11,700 -840 Descending Cleveland Center
08:31AM 42.0633 -83.7103 36° Northeast 342 394 11,200 -720 Descending Cleveland Center
08:31AM 42.0978 -83.6700 41° Northeast 333 383 11,000 -180 Descending Cleveland Center
08:32AM 42.1514 -83.6175 36° Northeast 288 331 11,000  Level FAA TRACON SMA TRACON (SMA)
08:32AM 42.1694 -83.5986 38° Northeast 259 298 11,000  Level FAA TRACON SMA TRACON (SMA)
08:33AM 42.1903 -83.5775 37° Northeast 244 281 11,000  Level FAA TRACON SMA TRACON (SMA)
08:33AM 42.2067 -83.5608 37° Northeast 238 274 11,000  Level FAA TRACON SMA TRACON (SMA)
08:33AM 42.2225 -83.5447 37° Northeast 231 266 11,000  Level FAA TRACON SMA TRACON (SMA)
08:34AM 42.2425 -83.5233 38° Northeast 236 272 11,000 -600 Level FAA TRACON SMA TRACON (SMA)
08:34AM 42.2583 -83.5064 38° Northeast 238 274 10,600 -1,440 Descending FAA TRACON SMA TRACON (SMA)
08:34AM 42.2742 -83.4889 39° Northeast 240 276 10,100 -1,560 Descending FAA TRACON SMA TRACON (SMA)
08:35AM 42.2947 -83.4681 37° Northeast 238 274 9,600 -1,440 Descending FAA TRACON SMA TRACON (SMA)
08:35AM 42.3125 -83.4561 26° Northeast 231 266 9,200 -1,200 Descending FAA TRACON SMA TRACON (SMA)
08:35AM 42.3294 -83.4442 28° Northeast 223 257 8,800 -1,320 Descending FAA TRACON SMA TRACON (SMA)
08:36AM 42.3506 -83.4297 27° Northeast 220 253 8,300 -1,500 Descending FAA TRACON SMA TRACON (SMA)
08:36AM 42.3675 -83.4186 26° Northeast 220 253 7,800 -1,500 Descending FAA TRACON SMA TRACON (SMA)
08:36AM 42.3844 -83.4072 26° Northeast 221 254 7,300 -1,860 Descending FAA TRACON SMA TRACON (SMA)
08:37AM 42.4050 -83.3928 27° Northeast 218 251 6,600 -1,680 Descending FAA TRACON SMA TRACON (SMA)
08:37AM 42.4153 -83.3717 57° Northeast 213 245 6,200 -1,380 Descending FAA TRACON SMA TRACON (SMA)
08:37AM 42.4214 -83.3486 70° East 213 245 5,700 -1,500 Descending FAA TRACON SMA TRACON (SMA)
08:38AM 42.4164 -83.3181 102° East 213 245 5,200 -1,200 Descending FAA TRACON SMA TRACON (SMA)
08:38AM 42.4056 -83.2997 129° Southeast 210 242 4,900 -1,080 Descending FAA TRACON SMA TRACON (SMA)
08:38AM 42.3858 -83.2956 171° South 202 232 4,500 -1,080 Descending FAA TRACON SMA TRACON (SMA)
08:39AM 42.3694 -83.2953 179° South 198 228 4,200 -1,080 Descending FAA TRACON SMA TRACON (SMA)
08:39AM 42.3497 -83.2956 181° South 183 211 3,800 -1,200 Descending FAA TRACON SMA TRACON (SMA)